Time;durP1;ratioP1;P1;durP2;ratioP2;P2;SDS_P1;SDS_P2;PMS_P1;PMS_P2;Temp;Humidity;BMP_temperature;BMP_pressure;BME280_temperature;BME280_humidity;BME280_pressure;Samples;Min_cycle;Max_cycle;Signal;HPM_P1;HPM_P2
2022/03/15 00:00:19;;;;;;;;;6.50;5.75;;;;;11.65;60.51;102264.44;5009800;28;45508;-71
2022/03/15 00:02:44;;;;;;;;;10.75;6.75;;;;;11.64;60.94;102265.34;5013573;28;45519;-71
2022/03/15 00:05:09;;;;;;;;;5.00;5.00;;;;;11.64;60.62;102260.09;5013756;28;45366;-71
2022/03/15 00:07:35;;;;;;;;;8.75;7.25;;;;;11.65;61.17;102255.69;5014160;28;48924;-71
2022/03/15 00:10:01;;;;;;;;;11.00;10.00;;;;;11.65;60.87;102250.41;5011158;28;45967;-71
2022/03/15 00:12:28;;;;;;;;;8.75;8.25;;;;;11.65;61.06;102251.28;5013559;28;45495;-71
2022/03/15 00:14:53;;;;;;;;;10.75;8.25;;;;;11.66;61.11;102260.03;5009712;28;45780;-71
2022/03/15 00:17:18;;;;;;;;;11.00;7.50;;;;;11.65;61.05;102253.06;5010758;28;45390;-71
2022/03/15 00:19:44;;;;;;;;;10.00;6.00;;;;;11.67;61.30;102251.22;5013002;28;47220;-71
2022/03/15 00:22:09;;;;;;;;;10.50;10.25;;;;;11.67;61.03;102246.84;5015553;28;45416;-71
2022/03/15 00:24:35;;;;;;;;;12.50;8.25;;;;;11.66;61.31;102236.34;5011395;28;45419;-71
2022/03/15 00:27:01;;;;;;;;;10.50;8.25;;;;;11.67;61.21;102243.34;5010311;28;45492;-71
2022/03/15 00:29:26;;;;;;;;;9.50;8.00;;;;;11.66;61.37;102234.56;5009858;28;47318;-71
2022/03/15 00:31:52;;;;;;;;;10.25;7.75;;;;;11.67;61.39;102238.06;5011673;28;45365;-71
2022/03/15 00:34:17;;;;;;;;;10.50;8.00;;;;;11.68;61.40;102243.28;5014203;28;45392;-71
2022/03/15 00:36:43;;;;;;;;;6.75;6.00;;;;;11.66;61.26;102238.97;5014873;28;45435;-71
2022/03/15 00:39:08;;;;;;;;;8.75;7.75;;;;;11.65;61.74;102239.88;5009720;28;46071;-71
2022/03/15 00:41:34;;;;;;;;;10.25;6.25;;;;;11.65;61.53;102245.16;5009924;28;45319;-72
2022/03/15 00:44:00;;;;;;;;;12.00;8.00;;;;;11.63;61.87;102239.91;5010090;28;45396;-71
2022/03/15 00:46:25;;;;;;;;;8.50;7.00;;;;;11.64;61.32;102246.91;5014799;28;45384;-71
2022/03/15 00:48:51;;;;;;;;;10.00;6.75;;;;;11.64;61.60;102246.03;5010801;28;46430;-72
2022/03/15 00:51:16;;;;;;;;;9.25;8.50;;;;;11.64;61.70;102239.03;5013809;28;45542;-71
2022/03/15 00:53:42;;;;;;;;;8.50;5.25;;;;;11.64;62.22;102239.03;5014485;28;45368;-71
2022/03/15 00:56:07;;;;;;;;;10.25;9.25;;;;;11.64;61.67;102236.38;5010123;28;45448;-71
2022/03/15 00:58:33;;;;;;;;;8.50;8.00;;;;;11.65;61.51;102229.34;5013896;28;45431;-72
2022/03/15 01:00:58;;;;;;;;;13.00;8.00;;;;;11.67;61.57;102231.03;5010710;28;45324;-71
2022/03/15 01:03:23;;;;;;;;;9.75;8.00;;;;;11.67;61.84;102233.66;5011972;28;45502;-72
2022/03/15 01:05:50;;;;;;;;;12.25;8.25;;;;;11.68;61.81;102222.22;5012792;28;56984;-71
2022/03/15 01:08:16;;;;;;;;;7.50;5.75;;;;;11.69;61.82;102216.09;5009704;28;47306;-71
2022/03/15 01:10:41;;;;;;;;;10.75;9.75;;;;;11.72;61.71;102220.38;5011992;28;45507;-72
2022/03/15 01:13:07;;;;;;;;;8.00;6.25;;;;;11.75;61.46;102218.56;5014123;28;45450;-71
2022/03/15 01:15:39;;;;;;;;;13.75;8.50;;;;;11.77;61.55;102223.78;5010025;28;45413;-71
2022/03/15 01:18:04;;;;;;;;;9.25;7.00;;;;;11.78;61.53;102209.69;5009527;28;47803;-72
2022/03/15 01:20:30;;;;;;;;;9.00;7.00;;;;;11.79;61.54;102208.78;5011335;28;45586;-71
2022/03/15 01:22:55;;;;;;;;;11.75;5.50;;;;;11.78;61.26;102201.81;5013232;28;45531;-72
2022/03/15 01:25:20;;;;;;;;;8.50;5.25;;;;;11.79;61.80;102197.41;5014604;28;45331;-72
2022/03/15 01:27:46;;;;;;;;;8.25;7.00;;;;;11.76;61.56;102193.94;5009560;28;46292;-71
2022/03/15 01:30:11;;;;;;;;;7.00;5.50;;;;;11.77;61.51;102193.03;5009333;28;45880;-72
2022/03/15 01:32:37;;;;;;;;;8.50;5.00;;;;;11.79;61.88;102195.63;5009791;28;45356;-72
2022/03/15 01:35:04;;;;;;;;;8.00;4.75;;;;;11.81;61.81;102190.34;5011429;28;45309;-71
2022/03/15 01:37:30;;;;;;;;;5.00;5.00;;;;;11.83;61.64;102185.91;5013257;28;46465;-71
2022/03/15 01:39:55;;;;;;;;;7.50;3.00;;;;;11.85;61.90;102194.63;5013781;28;45588;-72
2022/03/15 01:42:20;;;;;;;;;4.00;4.00;;;;;11.86;61.90;102191.13;5011712;28;45575;-71
2022/03/15 01:44:47;;;;;;;;;8.75;4.75;;;;;11.86;62.03;102180.59;5009929;28;45470;-71
2022/03/15 01:47:13;;;;;;;;;6.00;6.00;;;;;11.86;61.91;102175.31;5014329;28;47170;-71
2022/03/15 01:49:39;;;;;;;;;4.25;4.00;;;;;11.86;62.28;102173.53;5016005;28;45727;-71
2022/03/15 01:52:05;;;;;;;;;4.25;4.25;;;;;11.88;62.51;102169.09;5016331;28;45318;-71
2022/03/15 01:54:32;;;;;;;;;5.50;3.50;;;;;11.88;62.43;102166.47;5016808;28;45404;-71
2022/03/15 01:56:57;;;;;;;;;6.00;6.00;;;;;11.90;62.66;102164.66;5012613;28;46150;-71
2022/03/15 01:59:23;;;;;;;;;5.50;4.00;;;;;11.93;62.76;102158.44;5012837;28;45692;-71
2022/03/15 02:01:48;;;;;;;;;7.25;5.00;;;;;11.92;62.65;102154.94;5016139;28;45472;-72
2022/03/15 02:04:15;;;;;;;;;8.00;4.25;;;;;11.93;62.80;102150.53;5007925;28;45287;-71
2022/03/15 02:06:42;;;;;;;;;4.50;4.50;;;;;11.93;63.00;102143.50;5015860;28;46907;-71
2022/03/15 02:09:14;;;;;;;;;7.25;5.00;;;;;11.93;63.13;102151.41;5010683;28;45986;-72
2022/03/15 02:11:42;;;;;;;;;5.25;5.25;;;;;11.95;63.45;102143.44;5014233;28;45420;-72
2022/03/15 02:14:07;;;;;;;;;11.00;4.75;;;;;11.94;63.59;102137.31;5012652;28;45365;-72
2022/03/15 02:16:33;;;;;;;;;6.00;4.25;;;;;11.94;63.49;102137.31;5016183;28;46290;-72
2022/03/15 02:19:00;;;;;;;;;8.00;5.25;;;;;11.94;63.63;102139.09;5013454;28;45369;-71
2022/03/15 02:21:27;;;;;;;;;9.00;7.00;;;;;11.94;63.78;102134.69;5016551;28;45368;-72
2022/03/15 02:23:52;;;;;;;;;4.50;4.50;;;;;11.92;63.95;102133.88;5012739;28;45275;-71
2022/03/15 02:26:18;;;;;;;;;10.00;5.00;;;;;11.92;64.44;102131.22;5014295;28;45444;-71
2022/03/15 02:28:44;;;;;;;;;9.25;8.75;;;;;11.89;64.81;102123.41;5015084;28;47639;-72
2022/03/15 02:31:10;;;;;;;;;5.00;4.50;;;;;11.89;64.82;102117.28;5013980;28;45484;-72
2022/03/15 02:33:35;;;;;;;;;8.00;5.75;;;;;11.88;65.58;102113.78;5017512;28;45586;-71
2022/03/15 02:36:01;;;;;;;;;8.00;4.25;;;;;11.86;65.76;102107.69;5014146;28;45459;-72
2022/03/15 02:38:26;;;;;;;;;6.25;4.75;;;;;11.85;65.97;102103.34;5012404;28;45432;-72
2022/03/15 02:40:51;;;;;;;;;3.00;3.00;;;;;11.85;66.36;102100.69;5014823;28;45420;-72
2022/03/15 02:43:17;;;;;;;;;5.75;4.50;;;;;11.85;66.68;102098.06;5016481;28;45409;-72
2022/03/15 02:45:42;;;;;;;;;5.25;5.00;;;;;11.86;66.17;102094.53;5012218;28;46049;-72
2022/03/15 02:48:07;;;;;;;;;6.25;6.25;;;;;11.85;67.08;102099.81;5011945;28;45486;-72
2022/03/15 02:50:33;;;;;;;;;6.00;4.50;;;;;11.83;67.54;102088.47;5014061;28;45458;-71
2022/03/15 02:52:58;;;;;;;;;6.50;5.50;;;;;11.83;67.73;102091.09;5012901;28;45503;-72
2022/03/15 02:55:25;;;;;;;;;6.25;6.25;;;;;11.81;68.39;102093.75;5014967;28;45571;-71
2022/03/15 02:57:51;;;;;;;;;9.50;8.00;;;;;11.80;68.03;102081.50;5012680;28;45510;-72
2022/03/15 03:00:17;;;;;;;;;11.00;7.00;;;;;11.78;68.68;102078.00;5011180;28;45416;-71
2022/03/15 03:02:43;;;;;;;;;9.00;7.75;;;;;11.75;69.01;102073.69;5012042;28;45507;-72
2022/03/15 03:05:08;;;;;;;;;7.00;4.75;;;;;11.74;69.62;102077.25;5010458;28;46167;-71
2022/03/15 03:07:35;;;;;;;;;10.00;6.50;;;;;11.74;70.27;102065.81;5014744;28;45345;-72
2022/03/15 03:10:00;;;;;;;;;7.25;7.25;;;;;11.75;70.18;102067.56;5012194;28;45539;-71
2022/03/15 03:12:27;;;;;;;;;5.00;5.00;;;;;11.74;70.76;102069.34;5014985;28;45756;-72
2022/03/15 03:14:52;;;;;;;;;9.25;8.00;;;;;11.74;70.90;102064.09;5013267;28;47186;-71
2022/03/15 03:17:18;;;;;;;;;4.75;4.75;;;;;11.76;71.14;102070.16;5011869;28;45420;-71
2022/03/15 03:19:43;;;;;;;;;9.00;8.50;;;;;11.77;71.15;102066.63;5014454;28;45386;-71
2022/03/15 03:22:10;;;;;;;;;8.75;6.50;;;;;11.79;71.09;102065.69;5015327;28;45333;-72
2022/03/15 03:24:35;;;;;;;;;11.00;6.50;;;;;11.80;71.39;102064.78;5013990;28;46208;-71
2022/03/15 03:27:01;;;;;;;;;8.50;7.00;;;;;11.80;71.63;102059.53;5011120;28;45811;-71
2022/03/15 03:29:28;;;;;;;;;9.00;7.25;;;;;11.80;71.90;102060.41;5011496;28;45376;-72
2022/03/15 03:31:55;;;;;;;;;6.00;5.25;;;;;11.82;72.29;102060.41;4997824;28;45513;-72
2022/03/15 03:34:20;;;;;;;;;9.25;8.00;;;;;11.80;72.61;102065.69;5015308;28;46252;-72
2022/03/15 03:36:45;;;;;;;;;7.75;4.50;;;;;11.80;72.58;102068.31;5014258;28;45524;-72
2022/03/15 03:39:11;;;;;;;;;7.75;7.00;;;;;11.80;72.57;102059.53;5014159;28;45421;-72
2022/03/15 03:41:37;;;;;;;;;12.25;8.50;;;;;11.78;72.63;102067.47;5014640;28;45455;-71
2022/03/15 03:44:02;;;;;;;;;8.00;7.25;;;;;11.76;73.27;102066.66;5010651;28;46086;-72
2022/03/15 03:46:28;;;;;;;;;9.25;7.25;;;;;11.74;73.90;102058.81;5015539;28;45355;-72
2022/03/15 03:48:54;;;;;;;;;8.00;7.75;;;;;11.77;74.11;102063.13;5011849;28;45415;-72
2022/03/15 03:51:20;;;;;;;;;5.00;5.00;;;;;11.77;73.78;102058.72;5013125;28;48017;-72
2022/03/15 03:53:45;;;;;;;;;11.50;8.50;;;;;11.79;74.37;102057.81;5011299;28;46187;-72
2022/03/15 03:56:10;;;;;;;;;8.00;5.00;;;;;11.80;73.97;102057.78;5014338;28;45399;-71
2022/03/15 03:58:36;;;;;;;;;4.50;4.25;;;;;11.80;74.72;102049.00;5014980;28;45786;-72
2022/03/15 04:01:02;;;;;;;;;8.00;8.00;;;;;11.83;75.18;102060.34;5012082;28;45355;-72
2022/03/15 04:03:31;;;;;;;;;6.00;6.00;;;;;11.84;75.56;102053.31;5010767;28;47079;-72
2022/03/15 04:05:56;;;;;;;;;9.00;6.75;;;;;11.86;75.33;102054.16;5014197;28;45843;-72
2022/03/15 04:08:23;;;;;;;;;7.25;4.00;;;;;11.85;75.16;102047.13;5012978;28;47110;-72
2022/03/15 04:10:49;;;;;;;;;9.00;6.00;;;;;11.83;75.25;102038.41;5012951;28;45499;-72
2022/03/15 04:13:18;;;;;;;;;7.25;7.25;;;;;11.81;75.81;102037.56;5014551;28;45272;-72
2022/03/15 04:15:48;;;;;;;;;10.75;7.25;;;;;11.81;75.64;102040.22;5015636;28;45483;-72
2022/03/15 04:18:14;;;;;;;;;7.50;5.75;;;;;11.79;75.96;102032.31;5010752;28;45615;-72
2022/03/15 04:20:40;;;;;;;;;8.00;7.00;;;;;11.81;76.07;102030.53;5013813;28;45320;-72
2022/03/15 04:23:06;;;;;;;;;9.50;8.00;;;;;11.82;76.38;102020.88;5014914;28;46890;-72
2022/03/15 04:25:31;;;;;;;;;5.00;5.00;;;;;11.85;76.37;102028.69;4996899;28;45348;-72
2022/03/15 04:28:00;;;;;;;;;10.00;6.50;;;;;11.84;76.45;102022.56;5011668;28;45479;-72
2022/03/15 04:30:29;;;;;;;;;8.00;7.00;;;;;11.86;76.71;102020.75;5014824;28;45625;-72
2022/03/15 04:32:55;;;;;;;;;8.00;7.00;;;;;11.85;76.52;102026.06;5014128;28;46379;-72
2022/03/15 04:35:21;;;;;;;;;9.50;7.50;;;;;11.83;76.71;102023.47;5009409;28;46710;-72
2022/03/15 04:37:46;;;;;;;;;7.00;4.75;;;;;11.81;76.81;102020.00;5014758;28;46127;-72
2022/03/15 04:40:12;;;;;;;;;8.50;8.00;;;;;11.79;77.25;102015.66;5014602;28;45522;-72
2022/03/15 04:42:38;;;;;;;;;9.00;8.00;;;;;11.81;77.00;102021.78;5018971;28;47916;-72
2022/03/15 04:45:05;;;;;;;;;8.25;7.75;;;;;11.80;77.17;102017.38;5014989;28;45345;-72
2022/03/15 04:47:30;;;;;;;;;4.25;4.25;;;;;11.83;77.57;102023.47;5010409;28;45352;-72
2022/03/15 04:49:56;;;;;;;;;6.50;6.50;;;;;11.87;77.94;102016.34;5013398;28;45463;-72
2022/03/15 04:52:21;;;;;;;;;7.67;7.33;;;;;11.88;76.69;102016.31;5014253;28;58402;-72
2022/03/15 04:54:46;;;;;;;;;6.00;6.00;;;;;11.87;77.46;102011.09;5012013;28;45355;-72
2022/03/15 04:57:12;;;;;;;;;8.00;6.25;;;;;11.86;77.62;102007.59;5010221;28;45361;-72
2022/03/15 04:59:37;;;;;;;;;7.75;7.50;;;;;11.86;76.80;102009.38;5012040;28;45642;-72
2022/03/15 05:02:03;;;;;;;;;11.00;8.00;;;;;11.85;77.77;102012.88;5013939;28;45394;-72
2022/03/15 05:04:28;;;;;;;;;8.00;7.25;;;;;11.85;77.25;102008.50;5014127;28;45438;-72
2022/03/15 05:06:54;;;;;;;;;9.25;8.00;;;;;11.85;78.14;102008.50;5010088;28;45448;-72
2022/03/15 05:09:19;;;;;;;;;10.25;8.25;;;;;11.86;77.62;102014.63;5013435;28;45360;-72
2022/03/15 05:11:46;;;;;;;;;9.50;5.00;;;;;11.84;78.10;101993.59;5010002;28;47909;-72
2022/03/15 05:14:12;;;;;;;;;8.75;8.00;;;;;11.84;78.60;101998.84;5010150;28;45302;-72
2022/03/15 05:16:38;;;;;;;;;10.50;9.00;;;;;11.84;78.58;101998.00;5013573;28;45551;-72
2022/03/15 05:19:03;;;;;;;;;9.50;9.00;;;;;11.84;78.63;101992.72;5010882;28;45374;-72
2022/03/15 05:21:28;;;;;;;;;10.00;8.25;;;;;11.84;78.86;101996.22;5009819;28;47056;-72
2022/03/15 05:23:54;;;;;;;;;7.00;7.00;;;;;11.85;78.75;101997.09;5009873;28;45370;-72
2022/03/15 05:26:21;;;;;;;;;8.75;7.00;;;;;11.86;78.76;101998.84;5010233;28;45447;-72
2022/03/15 05:28:49;;;;;;;;;5.75;5.00;;;;;11.89;78.89;102004.00;5011958;28;45321;-72
2022/03/15 05:31:15;;;;;;;;;10.50;9.00;;;;;11.91;79.57;101995.16;5012154;28;47220;-72
2022/03/15 05:33:41;;;;;;;;;11.00;8.00;;;;;11.91;79.49;101987.25;5009820;28;45914;-72
2022/03/15 05:36:06;;;;;;;;;9.50;7.00;;;;;11.94;79.38;101991.56;5010080;28;45406;-72
2022/03/15 05:38:31;;;;;;;;;8.25;8.00;;;;;11.95;79.37;102001.19;5013555;28;45390;-72
2022/03/15 05:40:57;;;;;;;;;9.00;6.75;;;;;11.97;79.30;102008.16;5010274;28;45235;-72
2022/03/15 05:43:22;;;;;;;;;9.75;8.00;;;;;11.98;79.82;102012.50;5013398;28;45306;-72
2022/03/15 05:45:49;;;;;;;;;11.00;8.50;;;;;11.99;79.66;102016.00;5010573;28;45459;-72
2022/03/15 05:48:15;;;;;;;;;10.25;8.00;;;;;12.01;80.15;102006.31;5009151;28;45452;-73
2022/03/15 05:50:40;;;;;;;;;8.00;8.00;;;;;12.02;79.05;102005.38;5009439;28;45365;-73
2022/03/15 05:53:05;;;;;;;;;11.50;9.75;;;;;12.01;80.07;102007.16;5009708;28;49942;-73
2022/03/15 05:55:35;;;;;;;;;11.00;10.00;;;;;12.01;79.75;102008.94;4996446;28;45485;-73
2022/03/15 05:58:01;;;;;;;;;9.25;5.50;;;;;11.98;80.00;102007.25;5010481;28;45389;-73
2022/03/15 06:00:28;;;;;;;;;9.50;8.75;;;;;12.01;79.98;102022.13;5013479;28;46374;-72
2022/03/15 06:02:53;;;;;;;;;10.50;8.75;;;;;12.01;79.78;102016.84;5012978;28;45903;-72
2022/03/15 06:05:19;;;;;;;;;14.25;10.50;;;;;12.01;79.82;102016.84;5012530;28;51729;-72
2022/03/15 06:07:50;;;;;;;;;8.75;8.75;;;;;11.97;79.67;102010.78;5013143;28;45408;-72
2022/03/15 06:10:18;;;;;;;;;11.50;9.50;;;;;11.95;80.15;102015.25;5013255;28;46073;-72
2022/03/15 06:12:43;;;;;;;;;11.25;10.00;;;;;11.92;80.46;102015.31;5009738;28;45720;-72
2022/03/15 06:15:10;;;;;;;;;10.50;10.00;;;;;11.92;80.46;102022.38;5009351;28;45499;-72
2022/03/15 06:17:50;;;;;;;;;13.25;11.75;;;;;11.92;80.77;102025.00;5008738;28;45698;-72
2022/03/15 06:20:18;;;;;;;;;10.50;10.50;;;;;11.89;80.32;102020.66;5002390;28;47197;-71
2022/03/15 06:22:45;;;;;;;;;9.00;9.00;;;;;11.88;80.61;102025.97;5011979;28;45919;-72
2022/03/15 06:25:10;;;;;;;;;15.00;10.75;;;;;11.88;80.98;102024.22;5011453;28;45307;-72
2022/03/15 06:27:36;;;;;;;;;15.50;10.50;;;;;11.89;80.85;102030.34;5009452;28;45579;-71
2022/03/15 06:30:04;;;;;;;;;10.25;10.00;;;;;11.86;80.95;102020.75;5008487;28;46026;-72
2022/03/15 06:32:30;;;;;;;;;11.50;11.50;;;;;11.87;80.82;102024.25;5011394;28;45968;-72
2022/03/15 06:34:55;;;;;;;;;15.50;10.25;;;;;11.88;80.99;102021.56;5015628;28;45605;-72
2022/03/15 06:37:20;;;;;;;;;13.67;12.00;;;;;11.88;80.89;102021.56;5014196;28;59005;-72
2022/03/15 06:39:46;;;;;;;;;12.75;11.50;;;;;11.88;81.25;102024.22;5015381;28;51400;-72
2022/03/15 06:42:11;;;;;;;;;11.50;10.50;;;;;11.90;81.43;102022.41;5011234;28;55595;-72
2022/03/15 06:44:40;;;;;;;;;15.50;11.50;;;;;11.93;81.34;102021.44;5016207;28;45819;-72
2022/03/15 06:47:05;;;;;;;;;15.75;10.75;;;;;11.94;80.96;102010.88;5011726;28;45524;-72
2022/03/15 06:49:30;;;;;;;;;15.00;12.25;;;;;11.93;81.20;102018.81;5016347;28;47240;-72
2022/03/15 06:51:56;;;;;;;;;11.50;11.25;;;;;11.91;81.19;102012.75;5012111;28;52014;-72
2022/03/15 06:54:22;;;;;;;;;12.75;11.00;;;;;11.90;81.16;102024.16;5012226;28;45527;-71
2022/03/15 06:56:47;;;;;;;;;14.75;12.50;;;;;11.91;81.45;102015.38;5012138;28;45559;-72
2022/03/15 06:59:12;;;;;;;;;13.50;11.00;;;;;11.92;81.46;102011.81;5011213;28;47122;-71
2022/03/15 07:01:37;;;;;;;;;18.25;15.00;;;;;11.92;81.72;102017.09;5015045;28;45479;-71
2022/03/15 07:04:03;;;;;;;;;18.00;13.75;;;;;11.93;81.33;102017.03;5016147;28;45477;-72
2022/03/15 07:06:28;;;;;;;;;12.25;12.25;;;;;11.94;81.60;102017.91;4996427;28;45570;-72
2022/03/15 07:08:54;;;;;;;;;12.75;12.75;;;;;11.95;81.83;102006.44;5015817;28;46076;-72
2022/03/15 07:11:19;;;;;;;;;16.75;14.75;;;;;11.94;81.86;101996.81;5011977;28;45492;-72
2022/03/15 07:13:44;;;;;;;;;11.25;11.25;;;;;11.94;81.46;102007.38;5014550;28;45333;-72
2022/03/15 07:16:10;;;;;;;;;15.25;11.75;;;;;11.94;81.54;102010.88;5013129;28;45270;-72
2022/03/15 07:18:35;;;;;;;;;14.75;12.50;;;;;11.95;81.67;102017.00;5015030;28;46405;-72
2022/03/15 07:21:00;;;;;;;;;15.25;10.00;;;;;11.96;81.77;102018.75;5014392;28;45826;-72
2022/03/15 07:23:26;;;;;;;;;13.25;12.25;;;;;11.94;81.96;102018.75;5012005;28;45490;-72
2022/03/15 07:25:51;;;;;;;;;15.50;12.50;;;;;11.95;82.46;102023.16;5013076;28;45400;-72
2022/03/15 07:28:16;;;;;;;;;12.75;12.75;;;;;11.96;81.64;102021.38;5014396;28;46180;-72
2022/03/15 07:30:42;;;;;;;;;12.25;11.75;;;;;11.97;81.75;102020.47;5011229;28;45622;-72
2022/03/15 07:33:08;;;;;;;;;12.25;11.25;;;;;12.01;82.11;102035.28;5014684;28;45504;-72
2022/03/15 07:51:31;;;;;;;;;14.25;12.00;;;;;11.89;82.78;102001.38;5107512;27;45321;-73
2022/03/15 07:53:57;;;;;;;;;14.25;13.00;;;;;11.94;82.72;102000.31;5092227;27;45314;-73
2022/03/15 07:56:23;;;;;;;;;15.25;14.50;;;;;12.03;82.82;102007.13;5089545;27;45288;-73
2022/03/15 07:58:48;;;;;;;;;17.50;15.00;;;;;12.07;82.63;102013.16;5090033;27;45403;-73
2022/03/15 08:01:14;;;;;;;;;15.00;15.00;;;;;12.11;82.67;102007.78;5088188;27;46065;-73
2022/03/15 08:03:39;;;;;;;;;17.75;15.75;;;;;12.17;81.83;101997.03;5088131;27;45295;-73
2022/03/15 08:06:04;;;;;;;;;14.75;14.25;;;;;12.26;82.36;102003.78;5091954;27;45322;-72
2022/03/15 08:08:30;;;;;;;;;14.50;14.50;;;;;12.33;82.22;102007.13;5089706;27;45524;-73
2022/03/15 08:10:55;;;;;;;;;16.00;15.00;;;;;12.38;82.25;102000.81;5088459;27;49456;-73
2022/03/15 08:13:21;;;;;;;;;15.25;15.00;;;;;12.47;82.12;102000.50;5088115;27;45614;-73
2022/03/15 08:15:46;;;;;;;;;20.50;16.75;;;;;12.51;81.87;101999.50;5090981;27;45476;-73
2022/03/15 08:18:12;;;;;;;;;22.75;20.25;;;;;12.50;81.64;101994.28;5090495;27;45264;-72
2022/03/15 08:20:39;;;;;;;;;24.25;18.25;;;;;12.52;81.81;102001.22;5088293;27;46108;-72
2022/03/15 08:23:05;;;;;;;;;31.25;26.50;;;;;12.50;81.79;102004.84;5088039;27;45564;-72
2022/03/15 08:25:30;;;;;;;;;17.75;17.50;;;;;12.52;81.58;102005.66;5089309;27;45422;-73
2022/03/15 08:27:56;;;;;;;;;18.25;15.25;;;;;12.53;81.42;101997.72;5089869;27;45576;-72
2022/03/15 08:30:22;;;;;;;;;18.00;17.75;;;;;12.55;81.59;101997.66;5089325;27;47305;-72
2022/03/15 08:32:47;;;;;;;;;20.50;19.25;;;;;12.57;81.91;101994.97;5091750;27;45476;-73
2022/03/15 08:35:13;;;;;;;;;24.00;19.25;;;;;12.62;81.38;101988.63;5089375;27;45435;-73
2022/03/15 08:37:39;;;;;;;;;19.75;16.25;;;;;12.67;81.62;101991.13;5089310;27;45402;-73
2022/03/15 08:40:06;;;;;;;;;20.75;20.00;;;;;12.73;81.78;101998.84;5085957;27;45395;-73
2022/03/15 08:42:32;;;;;;;;;18.50;15.75;;;;;12.77;81.46;102008.38;5088260;27;45656;-73
2022/03/15 08:44:57;;;;;;;;;54.75;43.25;;;;;12.83;81.25;102012.59;5089170;27;45318;-73
2022/03/15 08:47:22;;;;;;;;;18.00;16.50;;;;;12.85;80.93;102018.72;5087739;27;45739;-73
2022/03/15 08:49:48;;;;;;;;;18.50;15.50;;;;;12.86;81.04;102015.16;5087791;27;52152;-73
2022/03/15 08:52:13;;;;;;;;;20.50;19.00;;;;;12.87;80.82;102020.38;5076488;27;45472;-73
2022/03/15 08:54:39;;;;;;;;;16.50;16.50;;;;;12.87;80.90;102019.50;5075225;27;45544;-73
2022/03/15 08:57:04;;;;;;;;;18.75;16.25;;;;;12.85;80.70;102019.56;5076095;27;45688;-73
2022/03/15 08:59:30;;;;;;;;;27.75;21.75;;;;;12.82;81.10;102018.78;5076282;28;45849;-73
2022/03/15 09:01:56;;;;;;;;;24.50;22.00;;;;;12.78;81.02;102016.25;5073936;28;45597;-72
2022/03/15 09:04:22;;;;;;;;;26.75;25.50;;;;;12.79;80.96;102027.69;5075645;27;45381;-73
2022/03/15 09:06:47;;;;;;;;;28.00;21.50;;;;;12.77;81.23;102026.84;5073059;27;45577;-73
2022/03/15 09:09:15;;;;;;;;;24.00;20.25;;;;;12.77;81.40;102011.88;5074637;28;46973;-72
2022/03/15 09:11:41;;;;;;;;;18.25;17.00;;;;;12.76;80.76;102014.56;5076160;28;45434;-72
2022/03/15 09:14:06;;;;;;;;;23.00;20.50;;;;;12.76;81.17;102022.50;5075701;27;45414;-73
2022/03/15 09:16:32;;;;;;;;;23.50;18.00;;;;;12.76;81.06;102012.81;5073043;27;45399;-73
2022/03/15 09:18:58;;;;;;;;;18.75;17.75;;;;;12.77;81.45;102019.78;5074594;28;45455;-72
2022/03/15 09:21:23;;;;;;;;;27.00;24.50;;;;;12.79;81.65;102025.91;5073916;27;45478;-73
2022/03/15 09:23:49;;;;;;;;;30.75;23.50;;;;;12.83;81.44;102033.69;5076784;27;45715;-73
2022/03/15 09:26:14;;;;;;;;;30.25;27.25;;;;;12.85;81.70;102026.63;5073956;28;45440;-72
2022/03/15 09:28:41;;;;;;;;;33.00;28.25;;;;;12.87;81.83;102024.78;5073352;27;53444;-73
2022/03/15 09:31:07;;;;;;;;;24.50;23.25;;;;;12.93;81.84;102038.63;5074242;27;45501;-72
2022/03/15 09:33:34;;;;;;;;;25.00;21.00;;;;;13.00;81.77;102026.13;5075666;27;45476;-73
2022/03/15 09:35:59;;;;;;;;;30.00;26.50;;;;;13.04;81.71;102030.38;5075326;27;45715;-73
2022/03/15 09:38:25;;;;;;;;;26.00;24.00;;;;;13.07;81.50;102030.28;5073926;27;46333;-73
2022/03/15 09:40:52;;;;;;;;;25.25;21.50;;;;;13.07;81.41;102019.72;5071999;27;45383;-73
2022/03/15 09:43:23;;;;;;;;;23.25;20.00;;;;;13.10;81.18;102022.25;5072854;28;45421;-73
2022/03/15 09:45:50;;;;;;;;;24.50;20.50;;;;;13.12;81.28;102020.44;5072989;27;45461;-73
2022/03/15 09:48:20;;;;;;;;;21.00;19.50;;;;;13.13;81.62;102014.25;5060078;27;46184;-73
2022/03/15 09:50:48;;;;;;;;;35.00;29.00;;;;;13.13;80.91;102016.03;5074322;28;45953;-73
2022/03/15 09:53:15;;;;;;;;;22.50;21.25;;;;;13.13;81.33;102013.38;5073117;28;45537;-73
2022/03/15 09:55:40;;;;;;;;;27.75;20.25;;;;;13.12;81.20;102001.09;5073105;27;45494;-73
2022/03/15 09:58:06;;;;;;;;;26.25;21.00;;;;;13.13;81.22;102002.81;5065632;27;45996;-73
2022/03/15 10:00:31;;;;;;;;;23.00;20.75;;;;;13.12;81.15;102003.75;5071707;27;45968;-73
2022/03/15 10:02:57;;;;;;;;;25.25;21.25;;;;;13.11;81.23;101994.09;5074149;28;45575;-72
2022/03/15 10:05:24;;;;;;;;;24.25;21.75;;;;;13.10;81.03;101989.72;5074434;27;45389;-72
2022/03/15 10:07:50;;;;;;;;;26.25;19.00;;;;;13.07;81.21;101998.63;5071558;27;47509;-72
2022/03/15 10:10:16;;;;;;;;;21.75;18.75;;;;;13.01;80.94;101990.91;5072902;28;45478;-72
2022/03/15 10:12:41;;;;;;;;;23.50;20.75;;;;;12.97;81.31;101989.28;5072883;27;45618;-73
2022/03/15 10:15:16;;;;;;;;;26.00;24.25;;;;;12.95;81.40;101991.13;5074109;27;45504;-72
2022/03/15 10:17:47;;;;;;;;;22.75;19.50;;;;;12.90;81.47;101996.53;5075519;28;46360;-73
2022/03/15 10:20:16;;;;;;;;;21.50;19.75;;;;;12.88;81.91;101986.94;5071895;27;45335;-73
2022/03/15 10:22:57;;;;;;;;;26.00;22.50;;;;;12.89;81.91;101986.88;5070111;27;45442;-72
2022/03/15 10:25:24;;;;;;;;;29.50;23.25;;;;;12.88;81.56;101985.16;5064504;28;45576;-72
2022/03/15 10:27:55;;;;;;;;;29.75;25.00;;;;;12.86;82.16;101991.41;5072051;27;45770;-72
2022/03/15 10:30:22;;;;;;;;;27.00;24.50;;;;;12.85;81.91;101992.31;5072902;27;46481;-71
2022/03/15 10:32:48;;;;;;;;;28.75;26.00;;;;;12.84;82.10;101994.06;5072909;27;45586;-72
2022/03/15 10:35:18;;;;;;;;;22.00;19.75;;;;;12.79;82.05;101988.97;5071355;27;45478;-72
2022/03/15 10:37:43;;;;;;;;;28.25;22.75;;;;;12.77;81.81;101985.50;5074075;28;45382;-72
2022/03/15 10:40:09;;;;;;;;;31.00;25.75;;;;;12.76;82.09;101983.78;5071981;27;45498;-72
2022/03/15 10:42:41;;;;;;;;;30.00;24.50;;;;;12.75;82.22;101984.69;5073050;27;45480;-72
2022/03/15 10:45:15;;;;;;;;;33.25;26.25;;;;;12.74;82.37;101982.97;5067268;28;45396;-72
2022/03/15 10:48:14;;;;;;;;;26.50;25.25;;;;;12.75;82.51;101987.34;5072323;28;45437;-72
2022/03/15 10:51:10;;;;;;;;;33.25;29.50;;;;;12.76;82.77;101986.41;5046169;28;45492;-70
2022/03/15 10:53:44;;;;;;;;;28.50;22.75;;;;;12.77;82.74;101982.88;5038915;28;46967;-72
2022/03/15 10:56:20;;;;;;;;;27.75;25.25;;;;;12.80;82.83;101977.50;5050421;28;45399;-71
2022/03/15 10:58:49;;;;;;;;;28.75;23.25;;;;;12.84;82.47;101980.88;5052329;28;47004;-72
2022/03/15 11:01:21;;;;;;;;;31.50;25.00;;;;;12.88;82.71;101969.31;5051829;28;46015;-72
2022/03/15 11:04:08;;;;;;;;;29.00;28.25;;;;;12.91;82.59;101969.25;5050802;28;45577;-72
2022/03/15 11:06:39;;;;;;;;;24.00;22.50;;;;;12.91;81.90;101969.25;5048082;28;45547;-72
2022/03/15 11:09:24;;;;;;;;;28.00;24.25;;;;;12.90;82.54;101970.16;5048963;28;45416;-72
2022/03/15 11:11:59;;;;;;;;;26.00;23.00;;;;;12.92;82.55;101970.09;5051616;28;45941;-72
2022/03/15 11:14:46;;;;;;;;;29.25;25.00;;;;;12.94;82.40;101955.94;5051003;28;45611;-72
2022/03/15 11:17:16;;;;;;;;;25.00;22.00;;;;;12.99;82.66;101961.06;5051591;28;45606;-71
2022/03/15 11:19:57;;;;;;;;;26.00;24.25;;;;;13.02;82.26;101958.31;5050269;28;48110;-71
2022/03/15 11:22:30;;;;;;;;;22.50;22.25;;;;;13.07;82.54;101954.63;5051500;28;47235;-72
2022/03/15 11:25:04;;;;;;;;;27.25;22.50;;;;;13.13;82.34;101964.09;5050633;28;46046;-73
2022/03/15 11:27:40;;;;;;;;;32.25;25.25;;;;;13.12;81.88;101957.09;5062209;28;45628;-71
2022/03/15 11:30:08;;;;;;;;;24.00;20.75;;;;;13.10;81.67;101963.31;5071345;28;45308;-73